Terminal Aerodrome Forecast
Issued by NWS

Home | Current Version | Previous Version | Text Only | Print | Product List | Glossary On
Versions: 1 2 3 4 5 6 7 8 9 10 11 12 13 14 15 16 17 18 19 20 21
240
FTUS41 KILN 241745 RRA
TAFLUK
TAF
KLUK 241745Z 2418/2518 28008KT P6SM OVC018
     FM242000 28006KT P6SM OVC026
     FM250300 VRB03KT P6SM SCT028 SCT090
     FM250500 16004KT P6SM SCT090
     FM251200 19008KT P6SM BKN026
     FM251400 19010KT P6SM BKN022
     FM251700 21014G22KT P6SM BKN020=

USA.gov is the U.S. government's official web portal to all federal, state and local government web resources and services.